Time;durP1;ratioP1;P1;durP2;ratioP2;P2;SDS_P1;SDS_P2;PMS_P1;PMS_P2;Temp;Humidity;BMP_temperature;BMP_pressure;BME280_temperature;BME280_humidity;BME280_pressure;Samples;Min_cycle;Max_cycle;Signal;HPM_P1;HPM_P2
2023/01/06 00:00:19;;;;;;;305.52;103.63;;;;;;;7.04;79.17;99842.56;5062482;28;20068;-61
2023/01/06 00:03:15;;;;;;;319.73;105.35;;;;;;;6.98;79.15;99861.59;5059392;28;20048;-61
2023/01/06 00:05:55;;;;;;;328.20;105.22;;;;;;;6.72;79.57;99871.88;5061918;28;20683;-60
2023/01/06 00:08:44;;;;;;;327.50;106.40;;;;;;;6.72;80.20;99876.31;5053401;28;20747;-60
2023/01/06 00:11:33;;;;;;;326.20;109.53;;;;;;;6.71;80.46;99879.91;5067868;28;20060;-60
2023/01/06 00:14:22;;;;;;;340.52;108.03;;;;;;;6.96;80.36;99875.84;5054749;28;20103;-60
2023/01/06 00:17:11;;;;;;;328.88;103.90;;;;;;;7.14;79.21;99869.72;5065674;28;20055;-60
2023/01/06 00:20:00;;;;;;;320.90;105.82;;;;;;;7.18;78.64;99879.00;5061716;28;20459;-60
2023/01/06 00:22:44;;;;;;;339.60;110.85;;;;;;;7.04;78.59;99882.06;5060867;28;20143;-60
2023/01/06 00:25:39;;;;;;;317.92;106.85;;;;;;;7.26;78.37;99873.00;5059072;28;20037;-60
2023/01/06 00:28:15;;;;;;;332.52;104.15;;;;;;;7.21;78.05;99875.25;5047090;28;20049;-60
2023/01/06 00:31:17;;;;;;;317.02;102.78;;;;;;;6.97;79.07;99875.72;5058970;28;20048;-60
2023/01/06 00:33:56;;;;;;;301.02;107.82;;;;;;;7.26;78.78;99878.28;5051580;28;20704;-61
2023/01/06 00:36:53;;;;;;;320.15;106.30;;;;;;;7.19;79.21;99872.75;5057918;28;20089;-60
2023/01/06 00:39:42;;;;;;;318.13;107.38;;;;;;;7.22;77.87;99883.00;5061089;28;20044;-60
2023/01/06 00:42:31;;;;;;;315.98;106.57;;;;;;;7.42;77.98;99889.06;5047677;28;20577;-62
2023/01/06 00:45:14;;;;;;;337.45;111.00;;;;;;;7.40;77.85;99887.53;5066461;28;20098;-59
2023/01/06 00:48:02;;;;;;;313.90;101.22;;;;;;;7.13;78.01;99891.75;5043061;28;20045;-60
2023/01/06 00:50:44;;;;;;;318.00;107.57;;;;;;;7.14;78.70;99890.78;5046884;28;20053;-60
2023/01/06 00:53:33;;;;;;;338.95;108.25;;;;;;;7.05;79.32;99891.63;5043192;28;20045;-61
2023/01/06 00:56:15;;;;;;;335.35;106.32;;;;;;;7.21;78.92;99899.78;5038339;28;20160;-60
2023/01/06 00:59:04;;;;;;;333.75;109.95;;;;;;;7.32;78.11;99900.59;5059645;28;20048;-60
2023/01/06 01:01:48;;;;;;;324.27;105.97;;;;;;;7.33;78.10;99908.38;5062317;28;20056;-60
2023/01/06 01:04:36;;;;;;;324.85;104.82;;;;;;;7.44;77.42;99921.38;5066486;28;20450;-59
2023/01/06 01:07:18;;;;;;;323.00;108.05;;;;;;;7.66;76.96;99917.56;5036357;28;20064;-60
2023/01/06 01:10:07;;;;;;;307.25;104.72;;;;;;;7.50;76.86;99928.72;5049770;28;20048;-60
2023/01/06 01:12:52;;;;;;;309.20;103.95;;;;;;;7.35;77.75;99929.28;5060186;28;20113;-60
2023/01/06 01:15:41;;;;;;;303.52;102.90;;;;;;;7.22;77.87;99925.16;5055263;28;20473;-60
2023/01/06 01:18:24;;;;;;;301.50;104.63;;;;;;;7.49;77.56;99936.75;5059896;28;20063;-61
2023/01/06 01:21:13;;;;;;;336.50;104.68;;;;;;;7.23;78.02;99945.28;5023714;28;20048;-58
2023/01/06 01:23:55;;;;;;;309.10;102.30;;;;;;;7.13;78.79;99949.72;5042704;28;20145;-61
2023/01/06 01:26:45;;;;;;;319.90;102.35;;;;;;;7.12;79.03;99953.34;5056728;28;20044;-58
2023/01/06 01:29:27;;;;;;;321.80;105.03;;;;;;;7.30;78.69;99950.81;5055723;28;20045;-58
2023/01/06 01:32:16;;;;;;;327.02;106.70;;;;;;;7.15;78.66;99947.78;5054414;28;20072;-59
2023/01/06 01:34:59;;;;;;;307.30;101.05;;;;;;;7.19;78.82;99954.44;5030174;28;20041;-60
2023/01/06 01:37:48;;;;;;;333.58;107.50;;;;;;;7.38;78.15;99956.22;5047993;28;20045;-61
2023/01/06 01:40:30;;;;;;;319.00;105.47;;;;;;;7.53;77.95;99967.13;5043377;28;20048;-60
2023/01/06 01:43:20;;;;;;;336.50;109.45;;;;;;;7.45;77.09;99967.84;5061244;28;20075;-61
2023/01/06 01:46:02;;;;;;;326.45;110.78;;;;;;;7.38;78.20;99972.03;5049529;28;20041;-61
2023/01/06 01:48:51;;;;;;;316.35;108.63;;;;;;;7.53;77.78;99967.97;5031932;28;20056;-61
2023/01/06 01:51:44;;;;;;;299.95;104.43;;;;;;;7.60;77.85;99968.25;5051134;28;20636;-62
2023/01/06 01:54:33;;;;;;;325.67;109.45;;;;;;;7.59;77.54;99961.31;5061250;28;20040;-61
2023/01/06 01:57:31;;;;;;;317.20;110.65;;;;;;;7.63;77.39;99970.59;5052817;28;20049;-60
2023/01/06 02:00:14;;;;;;;328.20;110.38;;;;;;;7.44;77.79;99960.06;5009208;28;20059;-61
2023/01/06 02:03:11;;;;;;;337.23;115.70;;;;;;;7.56;77.18;99966.88;5037783;28;20422;-61
2023/01/06 02:05:54;;;;;;;341.33;120.47;;;;;;;7.66;77.44;99973.75;5042865;28;20041;-61
2023/01/06 02:09:05;;;;;;;358.60;116.43;;;;;;;7.77;77.16;99970.13;5035682;28;20048;-60
2023/01/06 02:11:42;;;;;;;388.92;133.27;;;;;;;7.65;76.89;99968.66;5057622;28;20472;-61
2023/01/06 02:14:38;;;;;;;411.63;137.93;;;;;;;7.44;77.97;99975.88;5044975;28;20052;-61
2023/01/06 02:17:35;;;;;;;388.50;133.52;;;;;;;7.70;77.64;99982.22;5024749;28;20340;-59
2023/01/06 02:20:41;;;;;;;361.07;129.63;;;;;;;7.43;77.81;99979.50;5047952;28;20057;-59
2023/01/06 02:23:23;;;;;;;377.20;126.75;;;;;;;7.38;78.44;99987.00;5030290;28;20088;-61
2023/01/06 02:26:22;;;;;;;379.20;130.52;;;;;;;7.36;78.52;99996.84;5039581;28;20515;-61
2023/01/06 02:29:35;;;;;;;360.30;127.40;;;;;;;7.53;77.93;100001.41;5045211;28;20045;-59
2023/01/06 02:32:27;;;;;;;402.60;134.73;;;;;;;7.40;78.29;100014.03;5028627;28;20055;-60
2023/01/06 02:35:34;;;;;;;384.10;135.80;;;;;;;7.63;78.10;100023.31;5042124;28;20160;-60
2023/01/06 02:38:29;;;;;;;;;;;;;;;7.40;77.83;100033.31;5065294;28;20718;-60
2023/01/06 02:41:17;;;;;;;397.73;134.45;;;;;;;7.58;77.40;100044.00;5063424;28;19967;-60
2023/01/06 02:44:21;;;;;;;420.73;144.02;;;;;;;7.56;77.45;100044.16;5047418;28;20055;-60
2023/01/06 02:47:17;;;;;;;419.13;144.15;;;;;;;7.62;77.49;100042.72;5046379;28;20048;-59
2023/01/06 02:50:21;;;;;;;424.67;142.75;;;;;;;7.45;77.61;100040.81;5046067;28;20114;-60
2023/01/06 02:53:10;;;;;;;439.55;152.98;;;;;;;7.61;77.17;100041.09;5040474;28;20419;-60
2023/01/06 02:56:02;;;;;;;432.13;147.98;;;;;;;7.64;77.19;100049.53;5044426;28;20044;-60
2023/01/06 02:59:11;;;;;;;431.77;147.85;;;;;;;7.51;78.05;100058.72;5066547;28;20097;-60
2023/01/06 03:02:01;;;;;;;411.33;142.65;;;;;;;7.52;76.88;100060.38;5021786;28;20049;-60
2023/01/06 03:04:49;;;;;;;445.38;145.50;;;;;;;7.62;76.99;100051.47;5045399;28;20052;-60
2023/01/06 03:07:39;;;;;;;427.95;142.80;;;;;;;7.51;76.21;100053.44;5049131;28;20413;-61
2023/01/06 03:10:24;;;;;;;426.08;146.25;;;;;;;7.45;76.79;100051.34;5021983;28;20057;-60
2023/01/06 03:13:38;;;;;;;405.55;143.52;;;;;;;7.43;76.76;100046.25;5030751;28;20045;-60
2023/01/06 03:16:20;;;;;;;407.85;142.60;;;;;;;7.61;76.65;100051.63;5034706;28;20512;-61
2023/01/06 03:19:09;;;;;;;426.13;143.25;;;;;;;7.59;76.43;100062.31;5043915;28;20044;-62
2023/01/06 03:21:54;;;;;;;417.88;138.75;;;;;;;7.43;76.91;100059.41;5046646;28;20052;-61
2023/01/06 03:24:44;;;;;;;423.23;139.13;;;;;;;7.56;76.83;100061.75;5030343;28;20063;-61
2023/01/06 03:27:29;;;;;;;381.20;133.43;;;;;;;7.71;76.40;100065.63;5029762;28;20138;-59
2023/01/06 03:30:19;;;;;;;362.58;124.40;;;;;;;7.63;76.33;100062.84;5031865;28;20057;-60
2023/01/06 03:33:11;;;;;;;362.42;121.80;;;;;;;7.60;76.24;100063.16;5061719;28;20044;-60
2023/01/06 03:36:23;;;;;;;359.05;118.60;;;;;;;7.70;76.78;100071.06;5029637;28;20080;-60
2023/01/06 03:39:28;;;;;;;336.95;113.70;;;;;;;7.62;76.43;100080.47;5027969;28;20514;-60
2023/01/06 03:46:07;;;;;;;342.45;111.97;;;;;;;7.72;76.20;100096.28;5017702;28;20099;-61
2023/01/06 03:49:01;;;;;;;342.65;116.30;;;;;;;7.82;76.32;100118.22;5024512;28;20057;-60
2023/01/06 03:52:07;;;;;;;359.10;122.47;;;;;;;7.22;76.80;100119.28;5061381;28;20055;-60
2023/01/06 03:55:14;;;;;;;348.42;119.20;;;;;;;7.25;76.89;100124.31;5047529;28;20066;-60
2023/01/06 03:58:00;;;;;;;338.52;112.45;;;;;;;7.13;77.90;100128.84;5048033;28;20095;-61
2023/01/06 04:00:48;;;;;;;327.98;111.25;;;;;;;7.30;77.41;100130.00;5055185;28;20659;-60
2023/01/06 04:03:38;;;;;;;295.08;99.88;;;;;;;7.22;76.98;100141.19;5066342;28;20052;-61
2023/01/06 04:06:20;;;;;;;319.80;106.20;;;;;;;7.37;77.28;100148.72;5028980;28;20593;-61
2023/01/06 04:09:17;;;;;;;284.92;100.60;;;;;;;7.03;77.98;100150.88;5040837;28;20040;-60
2023/01/06 04:15:07;;;;;;;280.88;95.43;;;;;;;7.23;77.01;100152.59;5055972;28;20500;-59
2023/01/06 04:17:46;;;;;;;295.50;95.28;;;;;;;7.28;77.69;100160.91;5058709;28;20056;-62
2023/01/06 04:20:38;;;;;;;285.50;92.10;;;;;;;7.19;77.36;100170.47;5024868;28;20110;-62
2023/01/06 04:23:33;;;;;;;261.10;88.13;;;;;;;7.30;77.29;100174.81;5028885;28;20064;-60
2023/01/06 04:26:15;;;;;;;276.13;95.38;;;;;;;7.39;77.35;100173.97;5029826;28;20068;-61
2023/01/06 04:29:05;;;;;;;254.73;87.53;;;;;;;7.29;77.56;100172.28;5035301;28;20490;-61
2023/01/06 04:31:48;;;;;;;264.35;90.78;;;;;;;7.37;76.94;100175.91;5044048;28;20049;-61
2023/01/06 04:34:37;;;;;;;275.67;89.97;;;;;;;7.22;77.63;100174.63;5045086;28;20056;-61
2023/01/06 04:37:28;;;;;;;263.90;92.47;;;;;;;7.33;77.61;100184.22;5041519;28;20137;-60
2023/01/06 04:40:17;;;;;;;276.75;91.75;;;;;;;7.59;76.62;100188.03;5065929;28;20048;-61
2023/01/06 04:43:06;;;;;;;259.70;87.78;;;;;;;7.18;76.47;100187.25;5066419;28;20061;-62
2023/01/06 04:45:48;;;;;;;268.77;92.45;;;;;;;7.08;77.13;100201.38;5065949;28;20582;-61
2023/01/06 04:48:37;;;;;;;249.80;86.47;;;;;;;7.09;77.28;100195.94;5065830;28;20087;-61
2023/01/06 04:51:19;;;;;;;245.05;86.22;;;;;;;7.44;76.27;100189.38;5061348;28;20056;-61
2023/01/06 04:54:08;;;;;;;243.35;85.15;;;;;;;7.53;75.66;100188.56;5057915;28;20587;-63
2023/01/06 04:56:50;;;;;;;254.13;85.30;;;;;;;7.70;75.51;100187.06;5065212;28;20664;-59
2023/01/06 04:59:39;;;;;;;261.45;86.65;;;;;;;7.48;75.75;100193.44;5065768;28;20049;-62
2023/01/06 05:02:21;;;;;;;250.18;86.50;;;;;;;7.37;76.19;100197.00;5065663;28;20094;-60
2023/01/06 05:05:10;;;;;;;249.38;85.25;;;;;;;7.56;76.50;100193.56;5060829;28;20041;-60
2023/01/06 05:07:55;;;;;;;267.17;85.38;;;;;;;7.39;76.33;100194.25;5041807;28;20121;-59
2023/01/06 05:10:44;;;;;;;271.55;84.30;;;;;;;7.36;77.27;100183.94;5054756;28;20056;-60
2023/01/06 05:13:41;;;;;;;281.60;90.13;;;;;;;7.29;77.50;100180.19;5058645;28;20372;-60
2023/01/06 05:16:28;;;;;;;286.02;95.00;;;;;;;7.38;77.65;100182.03;5057956;28;20059;-60
2023/01/06 05:19:17;;;;;;;274.90;89.25;;;;;;;7.49;76.99;100169.53;5059951;28;20048;-59
2023/01/06 05:21:59;;;;;;;281.38;91.45;;;;;;;7.54;76.94;100175.25;5065037;28;20032;-60
2023/01/06 05:24:48;;;;;;;278.85;90.25;;;;;;;7.71;76.33;100173.72;5063774;28;20140;-60
2023/01/06 05:27:37;;;;;;;288.05;93.00;;;;;;;7.38;77.24;100174.94;5063677;28;20417;-64
2023/01/06 05:30:19;;;;;;;296.40;95.15;;;;;;;7.39;77.47;100181.88;5053603;28;20076;-61
2023/01/06 05:33:08;;;;;;;301.23;95.72;;;;;;;7.64;77.98;100186.66;5061363;28;20129;-65
2023/01/06 05:36:00;;;;;;;289.98;91.43;;;;;;;7.64;77.33;100197.19;5058638;28;20079;-60
2023/01/06 05:39:00;;;;;;;272.70;88.40;;;;;;;7.41;77.28;100195.75;5061139;28;20048;-61
2023/01/06 05:41:49;;;;;;;277.40;88.38;;;;;;;7.50;77.21;100176.50;5046643;28;20052;-61
2023/01/06 05:44:38;;;;;;;254.45;86.32;;;;;;;7.83;76.61;100170.00;5054035;28;20059;-59
2023/01/06 05:47:20;;;;;;;258.98;84.07;;;;;;;8.07;75.56;100180.94;5056493;28;20059;-61
2023/01/06 05:50:10;;;;;;;247.07;82.72;;;;;;;7.75;76.18;100182.19;5049136;28;20059;-61
2023/01/06 05:52:53;;;;;;;271.25;85.90;;;;;;;7.80;76.36;100178.16;5054762;28;20468;-61
2023/01/06 05:55:41;;;;;;;269.38;84.30;;;;;;;8.13;75.91;100177.75;5055131;28;20052;-61
2023/01/06 05:58:32;;;;;;;269.35;84.65;;;;;;;8.35;74.78;100189.00;5059199;28;20068;-60
2023/01/06 06:01:27;;;;;;;269.23;84.47;;;;;;;8.17;75.32;100186.22;5056596;28;20045;-60
2023/01/06 06:04:12;;;;;;;235.40;79.88;;;;;;;8.30;74.41;100191.22;5032209;28;20059;-61
2023/01/06 06:07:01;;;;;;;237.98;84.90;;;;;;;7.98;75.04;100181.78;5047276;28;20044;-61
2023/01/06 06:09:43;;;;;;;229.65;78.45;;;;;;;7.83;75.52;100175.28;5059886;28;20045;-63
2023/01/06 06:12:32;;;;;;;229.93;79.28;;;;;;;8.11;75.89;100170.94;5057532;28;20136;-62
2023/01/06 06:15:14;;;;;;;217.25;75.40;;;;;;;8.46;73.74;100165.91;5047612;28;20049;-63
2023/01/06 06:18:03;;;;;;;229.05;79.28;;;;;;;8.41;73.65;100162.03;5059582;28;20052;-60
2023/01/06 06:20:45;;;;;;;205.63;73.32;;;;;;;8.22;74.45;100168.16;5049531;28;20711;-61
2023/01/06 06:23:35;;;;;;;239.48;78.95;;;;;;;8.48;74.20;100163.97;5062757;28;20044;-61
2023/01/06 06:26:17;;;;;;;244.25;80.75;;;;;;;8.62;72.77;100161.84;5050780;28;20052;-60
2023/01/06 06:29:06;;;;;;;229.82;79.65;;;;;;;8.94;73.55;100160.44;5046871;28;20057;-61
2023/01/06 06:31:48;;;;;;;221.38;78.85;;;;;;;8.49;72.86;100143.69;5056637;28;20468;-61
2023/01/06 06:34:37;;;;;;;217.25;76.70;;;;;;;8.86;73.35;100136.56;5053120;28;20741;-62
2023/01/06 06:37:19;;;;;;;220.73;76.30;;;;;;;9.17;71.18;100142.38;5050297;28;20057;-60
2023/01/06 06:40:08;;;;;;;219.27;78.53;;;;;;;8.96;71.04;100132.06;5031716;28;20037;-62
2023/01/06 06:42:51;;;;;;;217.30;74.68;;;;;;;9.19;70.74;100123.75;5039921;28;20053;-60
2023/01/06 06:45:40;;;;;;;207.20;76.43;;;;;;;8.88;71.81;100124.06;5030806;28;20085;-60
2023/01/06 06:48:22;;;;;;;210.38;74.65;;;;;;;8.88;72.20;100123.22;5061971;28;20064;-60
2023/01/06 06:51:15;;;;;;;220.73;76.68;;;;;;;8.90;73.02;100116.81;5042764;28;20041;-63
2023/01/06 06:53:57;;;;;;;222.93;77.55;;;;;;;9.05;71.84;100111.03;5044043;28;20168;-61
2023/01/06 06:56:46;;;;;;;217.82;77.22;;;;;;;9.37;71.45;100104.28;5032837;28;20080;-61
2023/01/06 06:59:28;;;;;;;217.73;74.85;;;;;;;9.46;69.90;100097.25;5034131;28;20534;-60
2023/01/06 07:02:17;;;;;;;205.55;76.68;;;;;;;9.56;70.03;100108.56;5032882;28;20045;-61
2023/01/06 07:04:59;;;;;;;205.45;77.47;;;;;;;9.29;71.22;100114.75;5030927;28;20473;-60
2023/01/06 07:07:49;;;;;;;222.73;76.18;;;;;;;9.43;71.45;100116.03;5016404;28;20051;-61
2023/01/06 07:10:32;;;;;;;229.43;78.35;;;;;;;9.54;70.43;100109.72;5030272;28;20559;-61
2023/01/06 07:13:21;;;;;;;206.13;74.90;;;;;;;9.77;69.61;100089.75;5032859;28;20137;-60
2023/01/06 07:16:04;;;;;;;212.13;78.15;;;;;;;9.88;69.29;100087.69;5009805;28;20060;-62
2023/01/06 07:18:53;;;;;;;219.57;80.30;;;;;;;9.96;68.46;100076.31;5031826;28;20045;-62
2023/01/06 07:21:37;;;;;;;204.93;79.20;;;;;;;9.98;67.83;100070.88;5031594;28;20049;-61
2023/01/06 07:24:26;;;;;;;215.32;81.13;;;;;;;10.01;68.05;100067.91;5041589;28;20053;-61
2023/01/06 07:27:08;;;;;;;207.32;79.25;;;;;;;9.66;68.67;100067.00;5022234;28;20045;-61
2023/01/06 07:29:57;;;;;;;215.90;77.18;;;;;;;9.73;69.90;100070.72;5012818;28;20046;-60
2023/01/06 07:32:46;;;;;;;235.23;86.18;;;;;;;9.82;68.79;100075.06;5026754;28;20099;-61
2023/01/06 07:35:28;;;;;;;222.30;84.97;;;;;;;9.93;69.59;100080.13;5029120;28;20048;-61
2023/01/06 07:38:23;;;;;;;230.02;85.20;;;;;;;10.19;69.03;100072.22;5029983;28;20159;-62
2023/01/06 07:41:12;;;;;;;228.52;89.45;;;;;;;10.32;67.02;100077.91;5059202;28;20060;-62
2023/01/06 07:44:06;;;;;;;232.90;89.85;;;;;;;10.39;68.01;100064.06;5046583;28;20044;-59
2023/01/06 07:46:57;;;;;;;231.55;91.82;;;;;;;10.54;67.92;100065.09;5064416;28;20053;-63
2023/01/06 07:49:39;;;;;;;225.95;85.90;;;;;;;10.63;66.89;100061.50;5055340;28;20500;-62
2023/01/06 07:52:34;;;;;;;216.38;83.78;;;;;;;10.49;67.35;100051.53;5047380;28;20091;-61
2023/01/06 07:55:10;;;;;;;221.43;88.70;;;;;;;10.72;66.71;100034.88;5063343;28;20130;-61
2023/01/06 07:58:04;;;;;;;231.15;85.80;;;;;;;10.46;66.39;100030.66;5062972;28;20080;-60
2023/01/06 08:00:53;;;;;;;219.80;84.70;;;;;;;10.70;65.47;100020.16;5054523;28;20130;-63
2023/01/06 08:03:42;;;;;;;230.27;87.03;;;;;;;10.77;65.78;100022.00;5052783;28;20664;-61
2023/01/06 08:06:24;;;;;;;238.98;90.72;;;;;;;10.90;65.97;100020.69;5056956;28;20558;-66
2023/01/06 08:09:19;;;;;;;234.60;91.13;;;;;;;10.77;65.93;100023.81;5053557;28;20637;-59
2023/01/06 08:11:55;;;;;;;234.75;94.05;;;;;;;10.95;65.52;100011.28;5052393;28;20103;-60
2023/01/06 08:14:50;;;;;;;236.77;89.65;;;;;;;10.75;65.43;100007.25;5055517;28;20048;-60
2023/01/06 08:17:26;;;;;;;234.10;91.43;;;;;;;11.15;66.36;100009.16;5060354;28;20559;-60
2023/01/06 08:20:20;;;;;;;236.05;92.50;;;;;;;11.01;64.87;100007.97;5054474;28;20488;-60
2023/01/06 08:22:57;;;;;;;213.98;86.93;;;;;;;11.41;63.72;99993.94;5063280;28;20044;-61
2023/01/06 08:25:52;;;;;;;236.80;93.05;;;;;;;11.24;63.86;100002.88;5042250;28;20055;-61
2023/01/06 08:28:28;;;;;;;238.73;95.15;;;;;;;11.52;63.85;99992.75;5055567;28;20056;-61
2023/01/06 08:31:19;;;;;;;237.98;92.18;;;;;;;11.39;63.23;99982.63;5036232;28;20049;-61
2023/01/06 08:34:10;;;;;;;225.60;86.63;;;;;;;11.37;64.68;99982.00;5063120;28;20558;-62
2023/01/06 08:36:52;;;;;;;223.73;86.13;;;;;;;11.57;63.72;99972.69;5086310;28;20081;-61
2023/01/06 08:39:48;;;;;;;225.73;86.72;;;;;;;11.82;63.27;99962.88;5067956;28;20732;-60
2023/01/06 08:42:37;;;;;;;235.23;92.40;;;;;;;11.64;63.47;99968.34;5048032;28;20048;-62
2023/01/06 08:45:26;;;;;;;236.10;96.47;;;;;;;11.19;64.84;99957.44;5048047;28;20072;-64
2023/01/06 08:48:08;;;;;;;251.75;95.95;;;;;;;11.40;64.74;99947.16;5054775;28;20488;-64
2023/01/06 08:51:00;;;;;;;213.63;84.75;;;;;;;11.54;64.83;99959.75;5060130;28;20053;-60
2023/01/06 08:53:56;;;;;;;227.00;86.65;;;;;;;11.52;64.54;99961.72;5054184;28;20162;-64
2023/01/06 08:56:33;;;;;;;209.00;85.65;;;;;;;11.68;62.97;99963.56;5051748;28;20088;-60
2023/01/06 08:59:28;;;;;;;219.27;87.40;;;;;;;11.61;62.74;99951.94;5058298;28;20052;-61
2023/01/06 09:02:03;;;;;;;231.30;91.65;;;;;;;11.77;63.33;99953.78;5051701;28;20048;-61
2023/01/06 09:04:52;;;;;;;213.30;87.28;;;;;;;11.48;64.08;99956.94;5059817;28;20133;-59
2023/01/06 09:07:41;;;;;;;221.07;87.80;;;;;;;11.21;64.92;99940.38;5040119;28;20341;-60
2023/01/06 09:10:30;;;;;;;235.85;90.97;;;;;;;11.16;63.72;99955.13;5059139;28;20071;-59
2023/01/06 09:13:12;;;;;;;219.30;89.18;;;;;;;11.56;63.93;99943.66;5054098;28;20059;-60
2023/01/06 09:16:11;;;;;;;224.32;89.47;;;;;;;11.93;62.43;99938.63;5055648;28;20058;-60
2023/01/06 09:18:49;;;;;;;227.07;92.07;;;;;;;11.94;61.82;99937.66;5040950;28;20048;-61
2023/01/06 09:21:45;;;;;;;231.15;91.53;;;;;;;11.70;63.42;99935.84;5064919;28;20551;-60
2023/01/06 09:24:21;;;;;;;235.40;94.38;;;;;;;11.51;63.82;99924.75;5050415;28;20052;-60
2023/01/06 09:27:15;;;;;;;230.80;94.25;;;;;;;11.55;64.25;99928.75;5057471;28;20063;-62
2023/01/06 09:29:51;;;;;;;236.52;95.18;;;;;;;11.40;64.08;99915.34;5056060;28;20045;-58
2023/01/06 09:32:40;;;;;;;249.88;100.20;;;;;;;11.30;64.85;99921.81;5058587;28;20036;-60
2023/01/06 09:35:22;;;;;;;246.70;97.43;;;;;;;11.22;64.58;99935.91;5055858;28;20133;-60
2023/01/06 09:38:18;;;;;;;255.05;98.32;;;;;;;11.12;64.43;99929.94;5052788;28;20045;-60
2023/01/06 09:41:36;;;;;;;266.25;102.25;;;;;;;11.40;64.85;99933.06;5059470;28;20059;-61
2023/01/06 09:44:38;;;;;;;260.70;101.60;;;;;;;11.53;63.88;99941.34;5054241;28;20068;-60
2023/01/06 09:47:28;;;;;;;272.30;106.95;;;;;;;11.81;65.31;99937.34;5047687;28;20436;-60
2023/01/06 09:50:43;;;;;;;264.60;105.43;;;;;;;11.96;64.02;99938.28;5041291;28;20087;-61
2023/01/06 09:53:45;;;;;;;293.25;114.28;;;;;;;11.69;63.81;99931.53;5055299;28;20059;-60
2023/01/06 09:56:30;;;;;;;296.05;113.45;;;;;;;11.32;64.79;99912.69;5055672;28;20052;-60
2023/01/06 09:59:33;;;;;;;294.20;115.45;;;;;;;11.43;64.61;99916.81;5055890;28;20052;-60
2023/01/06 10:02:26;;;;;;;293.42;114.70;;;;;;;11.20;65.28;99911.34;5054650;28;20045;-61
2023/01/06 10:05:25;;;;;;;302.85;117.50;;;;;;;11.19;65.21;99909.72;5041979;28;20056;-61
2023/01/06 10:08:13;;;;;;;318.02;123.00;;;;;;;11.51;64.34;99917.63;5059605;28;20053;-62
2023/01/06 10:11:14;;;;;;;299.35;115.82;;;;;;;11.45;64.46;99907.72;5060644;28;20113;-60
2023/01/06 10:14:00;;;;;;;284.98;111.95;;;;;;;11.43;64.67;99909.69;5058622;28;20083;-60
2023/01/06 10:17:00;;;;;;;293.60;113.13;;;;;;;11.31;65.74;99913.69;5049372;28;20053;-62
2023/01/06 10:20:00;;;;;;;288.40;111.22;;;;;;;11.45;65.78;99928.09;5044603;28;20745;-60
2023/01/06 10:23:02;;;;;;;292.02;111.72;;;;;;;11.34;65.06;99926.59;5052313;28;20494;-63
2023/01/06 10:25:45;;;;;;;285.35;110.55;;;;;;;11.35;66.29;99932.75;5038303;28;20377;-62
2023/01/06 10:28:37;;;;;;;289.35;112.20;;;;;;;11.32;66.03;99925.97;5042127;28;20534;-62
2023/01/06 10:31:34;;;;;;;300.98;113.18;;;;;;;11.19;66.03;99921.16;5043141;28;20049;-61
2023/01/06 10:34:25;;;;;;;313.02;112.78;;;;;;;11.42;65.74;99917.84;5054082;28;20060;-60
2023/01/06 10:37:35;;;;;;;286.33;113.93;;;;;;;11.15;66.66;99925.13;5057178;28;20056;-60
2023/01/06 10:40:35;;;;;;;313.23;120.00;;;;;;;11.05;67.00;99939.56;5051436;28;20056;-62
2023/01/06 10:43:30;;;;;;;291.27;112.25;;;;;;;10.95;66.82;99936.22;5057642;28;20133;-61
2023/01/06 10:46:06;;;;;;;294.35;107.57;;;;;;;10.87;67.20;99942.34;5047671;28;20063;-60
2023/01/06 10:49:01;;;;;;;288.27;111.30;;;;;;;11.29;67.02;99939.53;5055490;28;20055;-60
2023/01/06 10:51:44;;;;;;;277.20;109.32;;;;;;;10.93;67.33;99924.97;5056505;28;20048;-61
2023/01/06 10:54:34;;;;;;;265.05;104.63;;;;;;;10.81;67.85;99927.91;5058553;28;20044;-61
2023/01/06 10:57:31;;;;;;;260.17;103.20;;;;;;;11.19;67.42;99934.41;5057397;28;20048;-66
2023/01/06 11:00:17;;;;;;;277.77;107.05;;;;;;;10.96;67.56;99935.22;5043354;28;20052;-61
2023/01/06 11:03:12;;;;;;;276.93;107.63;;;;;;;11.02;68.74;99940.69;5059500;28;20068;-62
2023/01/06 11:06:15;;;;;;;267.05;102.60;;;;;;;10.99;67.83;99937.53;5052011;28;20281;-61
2023/01/06 11:09:04;;;;;;;261.33;102.57;;;;;;;10.74;68.03;99932.22;5052981;28;20049;-61
2023/01/06 11:11:51;;;;;;;269.65;104.97;;;;;;;10.73;68.28;99935.03;5054268;28;20135;-60
2023/01/06 11:14:41;;;;;;;261.05;103.60;;;;;;;10.56;69.13;99931.53;5053168;28;20641;-60
2023/01/06 11:17:24;;;;;;;278.55;105.47;;;;;;;10.59;68.92;99928.53;5041778;28;20052;-60
2023/01/06 11:20:15;;;;;;;278.65;105.07;;;;;;;10.55;70.20;99929.03;5063254;28;20113;-60
2023/01/06 11:23:28;;;;;;;262.15;103.63;;;;;;;10.47;69.46;99939.63;5064020;28;20052;-59
2023/01/06 11:26:17;;;;;;;265.02;104.07;;;;;;;10.47;70.05;99940.44;5061551;28;20114;-61
2023/01/06 11:29:44;;;;;;;263.10;105.68;;;;;;;10.43;69.91;99927.69;5063104;28;20660;-60
2023/01/06 11:32:34;;;;;;;268.35;100.22;;;;;;;10.35;69.64;99923.22;5063007;28;20045;-60
2023/01/06 11:35:26;;;;;;;256.00;99.55;;;;;;;10.38;69.88;99914.94;5058290;28;20052;-62
2023/01/06 11:38:17;;;;;;;245.98;97.95;;;;;;;10.50;70.31;99916.28;5054545;28;20137;-62
2023/01/06 11:41:15;;;;;;;250.98;99.68;;;;;;;10.52;70.67;99914.31;5061317;28;20061;-61
2023/01/06 11:44:20;;;;;;;262.15;99.50;;;;;;;10.28;69.87;99907.13;5064654;28;20048;-60
2023/01/06 11:47:13;;;;;;;251.45;101.80;;;;;;;10.67;70.56;99903.88;5042331;28;20051;-61
2023/01/06 11:50:03;;;;;;;275.45;104.07;;;;;;;10.79;68.24;99895.47;5059264;28;20543;-61
2023/01/06 11:52:45;;;;;;;235.05;92.07;;;;;;;10.54;69.52;99899.06;5060747;28;20060;-60
2023/01/06 11:55:34;;;;;;;195.65;72.97;;;;;;;10.06;70.48;99899.72;5064659;28;20459;-60
2023/01/06 11:58:38;;;;;;;196.70;71.60;;;;;;;10.09;71.87;99898.59;5058605;28;20136;-61
2023/01/06 12:01:32;;;;;;;182.07;68.47;;;;;;;10.20;71.42;99900.97;5057597;28;20668;-61
2023/01/06 12:04:51;;;;;;;171.32;71.38;;;;;;;10.19;71.17;99897.50;5055975;28;20048;-58
2023/01/06 12:07:56;;;;;;;181.35;70.50;;;;;;;10.35;71.84;99912.63;5055952;28;20094;-59
2023/01/06 12:10:35;;;;;;;174.93;68.63;;;;;;;10.11;71.90;99921.25;5057306;28;20055;-58
2023/01/06 12:13:26;;;;;;;185.68;72.18;;;;;;;10.15;71.96;99917.34;5054148;28;20144;-60
2023/01/06 12:16:21;;;;;;;166.50;67.97;;;;;;;10.41;71.60;99922.53;5037464;28;20095;-60
2023/01/06 12:19:26;;;;;;;165.65;68.10;;;;;;;10.25;71.49;99925.16;5054952;28;20049;-60
2023/01/06 12:22:02;;;;;;;166.02;68.47;;;;;;;10.30;71.29;99928.16;5058308;28;20059;-62
2023/01/06 12:24:54;;;;;;;192.40;71.57;;;;;;;10.35;71.25;99920.56;5058420;28;20418;-60
2023/01/06 12:27:49;;;;;;;189.35;74.70;;;;;;;10.09;71.12;99917.94;5058669;28;20067;-58
2023/01/06 12:30:56;;;;;;;191.93;75.63;;;;;;;10.20;71.13;99916.84;5049922;28;20037;-61
2023/01/06 12:33:53;;;;;;;187.80;74.13;;;;;;;10.11;71.06;99909.84;5052468;28;20130;-60
2023/01/06 12:36:48;;;;;;;192.80;73.47;;;;;;;10.23;71.59;99921.81;5042588;28;20048;-60
2023/01/06 12:39:44;;;;;;;177.80;73.13;;;;;;;10.32;70.24;99921.69;5057547;28;20061;-60
2023/01/06 12:42:42;;;;;;;193.38;73.70;;;;;;;10.13;70.77;99924.59;5058573;28;20052;-59
2023/01/06 12:45:38;;;;;;;185.15;74.95;;;;;;;10.29;70.88;99927.31;5057362;28;20041;-62
2023/01/06 12:48:43;;;;;;;179.30;74.18;;;;;;;10.23;70.47;99920.00;5058871;28;20541;-60
2023/01/06 12:51:43;;;;;;;192.98;74.43;;;;;;;10.27;71.13;99925.81;5060008;28;20048;-60
2023/01/06 12:54:34;;;;;;;187.02;72.25;;;;;;;10.29;71.51;99934.44;5055783;28;20041;-60
2023/01/06 12:57:38;;;;;;;176.60;73.32;;;;;;;10.38;71.37;99941.41;5058036;28;20700;-60